createdAt,value
2023-05-06T00:04:44.457Z,11.28
2023-05-06T00:09:48.344Z,11.25
2023-05-06T00:14:51.876Z,11.25
2023-05-06T00:19:56.192Z,11.26
2023-05-06T00:24:59.358Z,11.29
2023-05-06T00:30:02.323Z,11.28
2023-05-06T00:35:06.547Z,11.26
2023-05-06T00:40:10.846Z,11.24
2023-05-06T00:45:13.840Z,11.19
2023-05-06T00:50:17.329Z,11.13
2023-05-06T00:55:21.461Z,11.06
2023-05-06T01:00:24.510Z,10.98
2023-05-06T01:05:52.444Z,10.92
2023-05-06T01:11:15.909Z,10.84
2023-05-06T01:16:23.454Z,10.78
2023-05-06T01:21:34.922Z,10.68
2023-05-06T01:26:38.294Z,10.62
2023-05-06T01:31:50.232Z,10.49
2023-05-06T01:37:21.270Z,10.40
2023-05-06T01:42:26.063Z,10.42
2023-05-06T01:47:29.140Z,10.43
2023-05-06T01:52:31.990Z,10.40
2023-05-06T01:57:35.265Z,10.39
2023-05-06T02:02:38.512Z,10.34
2023-05-06T02:07:41.642Z,10.29
2023-05-06T02:12:44.465Z,10.28
2023-05-06T02:17:47.917Z,10.19
2023-05-06T02:22:51.043Z,10.13
2023-05-06T02:27:53.962Z,10.12
2023-05-06T02:32:57.830Z,10.05
2023-05-06T02:38:01.562Z,10.04
2023-05-06T02:43:04.681Z,10.07
2023-05-06T02:48:07.675Z,10.09
2023-05-06T02:53:13.162Z,10.13
2023-05-06T02:58:16.173Z,10.17
2023-05-06T03:03:19.108Z,10.15
2023-05-06T03:08:22.268Z,10.15
2023-05-06T03:13:25.107Z,10.09
2023-05-06T03:18:28.048Z,10.04
2023-05-06T03:23:31.198Z,9.97
2023-05-06T03:28:34.338Z,9.93
2023-05-06T03:33:37.343Z,9.85
2023-05-06T03:38:41.634Z,9.85
2023-05-06T03:43:44.716Z,9.83
2023-05-06T03:48:47.849Z,9.79
2023-05-06T03:53:52.346Z,9.82
2023-05-06T03:58:57.133Z,9.83
2023-05-06T04:04:00.338Z,9.90
2023-05-06T04:09:06.418Z,9.98
2023-05-06T04:14:09.422Z,10.07
2023-05-06T04:19:13.012Z,10.20
2023-05-06T04:24:18.705Z,10.28
2023-05-06T04:29:21.717Z,10.42
2023-05-06T04:34:25.268Z,10.63
2023-05-06T04:39:28.546Z,10.78
2023-05-06T04:44:34.078Z,11.10
2023-05-06T04:49:37.026Z,11.38
2023-05-06T04:54:39.932Z,11.62
2023-05-06T04:59:42.881Z,11.86
2023-05-06T05:04:45.717Z,12.01
2023-05-06T05:09:49.395Z,12.13
2023-05-06T05:14:52.568Z,12.25
2023-05-06T05:19:55.501Z,12.36
2023-05-06T05:24:58.574Z,12.42
2023-05-06T05:30:01.591Z,12.52
2023-05-06T05:35:06.132Z,12.66
2023-05-06T05:40:10.076Z,12.86
2023-05-06T05:45:12.892Z,13.12
2023-05-06T05:50:15.810Z,13.39
2023-05-06T05:55:18.650Z,13.66
2023-05-06T06:00:21.665Z,13.88
2023-05-06T06:05:24.616Z,14.15
2023-05-06T06:10:27.679Z,14.47
2023-05-06T06:15:31.834Z,14.77
2023-05-06T06:20:36.152Z,15.11
2023-05-06T06:25:39.062Z,15.21
2023-05-06T06:30:42.018Z,15.38
2023-05-06T06:35:45.024Z,15.53
2023-05-06T06:40:47.972Z,15.80
2023-05-06T06:45:51.400Z,16.08
2023-05-06T06:50:54.420Z,16.20
2023-05-06T06:55:57.242Z,16.28
2023-05-06T07:01:00.387Z,16.45
2023-05-06T07:06:03.605Z,16.54
2023-05-06T07:11:06.695Z,16.77
2023-05-06T07:16:09.904Z,17.02
2023-05-06T07:21:12.827Z,17.30
2023-05-06T07:26:15.864Z,17.57
2023-05-06T07:31:21.202Z,17.79
2023-05-06T07:36:24.737Z,17.95
2023-05-06T07:41:28.199Z,18.09
2023-05-06T07:46:31.412Z,18.34
2023-05-06T07:51:34.294Z,18.48
2023-05-06T07:56:37.479Z,18.61
2023-05-06T08:01:40.851Z,18.79
2023-05-06T08:06:43.942Z,18.99
2023-05-06T08:11:47.063Z,19.15
2023-05-06T08:16:51.018Z,19.24
2023-05-06T08:21:55.632Z,19.42
2023-05-06T08:26:58.567Z,19.73
2023-05-06T08:32:01.768Z,20.08
2023-05-06T08:37:04.658Z,20.38
2023-05-06T08:42:12.055Z,20.58
2023-05-06T08:47:15.133Z,20.79
2023-05-06T08:52:19.980Z,20.67
2023-05-06T08:57:22.999Z,20.68
2023-05-06T09:02:26.805Z,20.85
2023-05-06T09:07:30.100Z,21.15
2023-05-06T09:12:38.105Z,21.50
2023-05-06T09:17:41.205Z,21.85
2023-05-06T09:22:44.407Z,21.87
2023-05-06T09:27:47.382Z,22.08
2023-05-06T09:32:53.188Z,22.41
2023-05-06T09:37:56.820Z,22.55
2023-05-06T09:43:03.593Z,22.80
2023-05-06T09:48:08.404Z,23.21
2023-05-06T09:53:13.362Z,23.35
2023-05-06T09:58:17.625Z,23.38
2023-05-06T10:03:22.591Z,23.42
2023-05-06T10:08:26.466Z,23.18
2023-05-06T10:13:31.394Z,23.03
2023-05-06T10:18:37.151Z,23.01
2023-05-06T10:24:11.460Z,22.90
2023-05-06T10:29:15.095Z,22.79
2023-05-06T10:34:21.631Z,22.68
2023-05-06T10:39:25.334Z,22.74
2023-05-06T10:44:58.348Z,22.94
2023-05-06T10:50:33.744Z,23.59
2023-05-06T10:55:40.243Z,23.75
2023-05-06T11:00:57.110Z,23.75
2023-05-06T11:06:00.537Z,23.90
2023-05-06T11:11:48.059Z,24.22
2023-05-06T11:16:52.727Z,24.26
2023-05-06T11:21:58.531Z,24.32
2023-05-06T11:27:01.792Z,24.09
2023-05-06T11:32:21.540Z,23.87
2023-05-06T11:37:27.143Z,23.58
2023-05-06T11:42:30.010Z,23.37
2023-05-06T11:47:33.015Z,23.03
2023-05-06T11:52:36.212Z,22.76
2023-05-06T11:57:44.707Z,22.52
2023-05-06T12:02:47.588Z,22.30
2023-05-06T12:07:51.346Z,22.11
2023-05-06T12:12:54.986Z,21.95
2023-05-06T12:17:58.169Z,21.87
2023-05-06T12:23:15.706Z,21.87
2023-05-06T12:28:26.967Z,21.87
2023-05-06T12:33:45.755Z,21.92
2023-05-06T12:38:57.558Z,21.99
2023-05-06T12:44:00.685Z,22.04
2023-05-06T12:49:03.873Z,22.01
2023-05-06T12:54:30.960Z,21.90
2023-05-06T12:59:36.372Z,21.70
2023-05-06T13:04:39.429Z,21.53
2023-05-06T13:09:44.940Z,21.44
2023-05-06T13:14:47.864Z,21.28
2023-05-06T13:19:51.182Z,21.05
2023-05-06T13:24:54.219Z,20.94
2023-05-06T13:29:57.456Z,20.57
2023-05-06T13:35:00.669Z,20.22
2023-05-06T13:40:05.045Z,19.81
2023-05-06T13:45:09.133Z,19.57
2023-05-06T13:50:12.306Z,19.35
2023-05-06T13:55:16.905Z,19.07
2023-05-06T14:00:22.029Z,18.87
2023-05-06T14:05:25.294Z,18.52
2023-05-06T14:10:28.309Z,17.98
2023-05-06T14:15:31.342Z,17.42
2023-05-06T14:20:34.283Z,17.05
2023-05-06T14:25:37.352Z,16.76
2023-05-06T14:30:41.128Z,16.55
2023-05-06T14:35:46.307Z,16.45
2023-05-06T14:40:50.910Z,16.46
2023-05-06T14:45:54.372Z,16.52
2023-05-06T14:50:57.512Z,16.68
2023-05-06T14:56:00.874Z,16.77
2023-05-06T15:01:04.020Z,16.87
2023-05-06T15:06:06.969Z,16.98
2023-05-06T15:11:10.100Z,17.15
2023-05-06T15:16:13.024Z,17.29
2023-05-06T15:21:17.492Z,17.52
2023-05-06T15:26:21.603Z,18.36
2023-05-06T15:31:24.640Z,19.70
2023-05-06T15:36:27.858Z,20.58
2023-05-06T15:41:36.359Z,21.03
2023-05-06T15:46:39.848Z,21.37
2023-05-06T15:51:42.847Z,21.81
2023-05-06T15:56:46.668Z,22.37
2023-05-06T16:06:56.254Z,22.91
2023-05-06T16:11:59.184Z,22.96
2023-05-06T16:17:02.252Z,22.75
2023-05-06T16:22:05.194Z,22.47
2023-05-06T16:27:08.430Z,22.51
2023-05-06T16:32:11.918Z,22.38
2023-05-06T16:37:15.727Z,22.36
2023-05-06T16:42:18.616Z,22.04
2023-05-06T16:47:24.165Z,21.50
2023-05-06T16:52:28.998Z,20.95
2023-05-06T16:57:33.796Z,20.53
2023-05-06T17:02:37.847Z,20.07
2023-05-06T17:07:41.138Z,19.65
2023-05-06T17:12:44.223Z,19.37
2023-05-06T17:17:47.545Z,19.08
2023-05-06T17:22:50.907Z,18.84
2023-05-06T17:27:54.038Z,18.66
2023-05-06T17:32:57.172Z,18.55
2023-05-06T17:38:00.545Z,18.46
2023-05-06T17:43:03.683Z,18.33
2023-05-06T17:48:06.877Z,18.24
2023-05-06T17:53:10.057Z,18.14
2023-05-06T17:58:13.176Z,18.05
2023-05-06T18:03:16.501Z,17.96
2023-05-06T18:08:19.844Z,17.88
2023-05-06T18:13:23.664Z,17.76
2023-05-06T18:18:26.767Z,17.57
2023-05-06T18:23:30.033Z,17.41
2023-05-06T18:28:40.154Z,17.31
2023-05-06T18:33:43.436Z,17.23
2023-05-06T18:38:46.548Z,17.09
2023-05-06T18:43:49.544Z,16.97
2023-05-06T18:48:52.469Z,16.90
2023-05-06T18:53:55.729Z,16.80
2023-05-06T18:58:59.707Z,16.71
2023-05-06T19:04:02.704Z,16.65
2023-05-06T19:09:10.188Z,16.63
2023-05-06T19:14:13.372Z,16.60
2023-05-06T19:19:16.429Z,16.64
2023-05-06T19:24:19.483Z,16.60
2023-05-06T19:29:22.283Z,16.56
2023-05-06T19:34:25.761Z,16.50
2023-05-06T19:39:28.690Z,16.50
2023-05-06T19:44:31.876Z,16.48
2023-05-06T19:49:34.878Z,16.46
2023-05-06T19:54:37.928Z,16.38
2023-05-06T19:59:41.014Z,16.29
2023-05-06T20:04:44.195Z,16.19
2023-05-06T20:09:47.098Z,16.09
2023-05-06T20:14:50.031Z,16.04
2023-05-06T20:19:53.474Z,16.00
2023-05-06T20:25:13.070Z,16.01
2023-05-06T20:30:16.436Z,16.01
2023-05-06T20:35:19.989Z,15.99
2023-05-06T20:40:23.085Z,15.99
2023-05-06T20:45:26.185Z,15.98
2023-05-06T20:50:30.998Z,15.97
2023-05-06T20:55:34.251Z,15.89
2023-05-06T21:00:37.184Z,15.85
2023-05-06T21:05:40.212Z,15.83
2023-05-06T21:10:44.313Z,15.76
2023-05-06T21:15:47.051Z,15.73
2023-05-06T21:20:49.999Z,15.62
2023-05-06T21:25:53.017Z,15.52
2023-05-06T21:30:56.075Z,15.43
2023-05-06T21:35:58.911Z,15.32
2023-05-06T21:41:01.865Z,15.19
2023-05-06T21:46:04.808Z,15.04
2023-05-06T21:51:07.816Z,14.98
2023-05-06T21:56:11.015Z,14.88
2023-05-06T22:01:14.478Z,14.73
2023-05-06T22:06:17.585Z,14.66
2023-05-06T22:11:22.680Z,14.60
2023-05-06T22:16:25.800Z,14.60
2023-05-06T22:21:31.751Z,14.54
2023-05-06T22:26:34.885Z,14.54
2023-05-06T22:31:38.028Z,14.51
2023-05-06T22:36:41.504Z,14.52
2023-05-06T22:41:44.797Z,14.53
2023-05-06T22:46:47.862Z,14.54
2023-05-06T22:51:50.682Z,14.58
2023-05-06T22:56:53.684Z,14.55
2023-05-06T23:01:56.832Z,14.55
2023-05-06T23:06:59.744Z,14.55
2023-05-06T23:12:02.895Z,14.53
2023-05-06T23:17:07.169Z,14.55
2023-05-06T23:22:10.315Z,14.56
2023-05-06T23:27:13.147Z,14.50
2023-05-06T23:32:16.753Z,14.44
2023-05-06T23:37:19.753Z,14.31
2023-05-06T23:42:22.863Z,14.19
2023-05-06T23:47:26.691Z,14.09
2023-05-06T23:52:29.756Z,14.06
2023-05-06T23:57:32.812Z,13.99
